»·PEaware :: SWA120 KSAN-KSFO

SWA120 :: KSAN-KSFO

FLIGHT INFORMATION

Flight Status: Arrived
Operator:
Southwest Airlines
More flights by this operator :: More flights under this callsign
Pilot: Maximilliano F. (23467)
Aircraft: BOEING 737-800
(B738)
More flights by this aircraft type
Origin: KSAN San Diego Intl-Lindbergh
United States
Destination: KSFO San Francisco Intl
United States
More flights between these airports :: More routes between these airports
Route: PADRZ2 IKAYE RIZIN SPLNT STOKD SERFR SERFR3
File this flight plan on PilotEdge
Remarks: RMK / SIMBRIEF
Altitude:
(Current/Filed)
34,000ft
Speed:
(Current/Filed)
463kts
Departed: 15-Oct-19 07:13 PM
Arrived: 15-Oct-19 08:16 PM
Distance/Time
Traveled:
388nm/1:02
Distance/Time
To Go:
Arrived

Flight Plot

Page will automatically refresh every two minutes.

Flight plan parsing failed; only flown route is shown


Map Options




Map Legend


Flown Route
Filed Route
Departure Airport
Arrival Airport
Navaid (VOR, NDB)
Fix

Horizontal Profiles

Position Reports

Time Latitude Longitude Heading Altitude Ground
Speed
15-Oct-19 18:49 32.731852 -117.195861 247 21ft 0kts
15-Oct-19 18:49 32.731852 -117.195861 247 21ft 0kts
15-Oct-19 18:50 32.731852 -117.195861 247 21ft 0kts
15-Oct-19 18:52 32.731852 -117.195861 247 21ft 0kts
15-Oct-19 18:53 32.731852 -117.195861 247 21ft 0kts
15-Oct-19 18:53 32.731852 -117.195861 247 21ft 0kts
15-Oct-19 18:54 32.731852 -117.195861 247 21ft 0kts
15-Oct-19 18:56 32.731852 -117.195861 247 21ft 0kts
15-Oct-19 18:56 32.731852 -117.195861 247 21ft 0kts
15-Oct-19 18:57 32.731852 -117.195861 247 21ft 0kts
15-Oct-19 18:58 32.731852 -117.195861 247 21ft 0kts
15-Oct-19 18:59 32.731852 -117.195861 247 21ft 0kts
15-Oct-19 19:00 32.731852 -117.195861 247 21ft 0kts
15-Oct-19 19:01 32.731859 -117.195843 247 21ft 1kts
15-Oct-19 19:02 32.731688 -117.195274 340 21ft 0kts
15-Oct-19 19:03 32.731615 -117.195250 343 21ft 0kts
15-Oct-19 19:04 32.731615 -117.195250 344 21ft 0kts
15-Oct-19 19:05 32.731690 -117.195233 26 21ft 1kts
15-Oct-19 19:06 32.732190 -117.194927 27 21ft 1kts
15-Oct-19 19:07 32.733098 -117.194258 30 21ft 9kts
15-Oct-19 19:08 32.732778 -117.190729 106 21ft 19kts
15-Oct-19 19:09 32.731311 -117.184660 106 19ft 18kts
15-Oct-19 19:10 32.729988 -117.179209 105 20ft 14kts
15-Oct-19 19:11 32.729603 -117.176350 72 24ft 7kts
15-Oct-19 19:12 32.732280 -117.184382 286 20ft 121kts
15-Oct-19 19:13 32.751149 -117.238327 305 1966ft 191kts
15-Oct-19 19:14 32.788796 -117.299433 307 4038ft 260kts
15-Oct-19 19:15 32.833570 -117.371474 310 7244ft 283kts
15-Oct-19 19:16 32.882802 -117.447048 308 10576ft 292kts
15-Oct-19 19:17 32.935661 -117.529463 308 13377ft 324kts
15-Oct-19 19:18 32.992377 -117.617896 308 16499ft 345kts
15-Oct-19 19:19 33.051247 -117.709477 309 19968ft 347kts
15-Oct-19 19:20 33.121432 -117.788910 323 22441ft 364kts
15-Oct-19 19:21 33.199523 -117.868558 319 25099ft 377kts
15-Oct-19 19:22 33.274187 -117.957355 317 27725ft 382kts
15-Oct-19 19:23 33.350103 -118.047868 316 29738ft 396kts
15-Oct-19 19:24 33.428519 -118.141677 315 31998ft 400kts
15-Oct-19 19:25 33.506319 -118.235540 315 34001ft 403kts
15-Oct-19 19:26 33.589800 -118.335998 315 34005ft 440kts
15-Oct-19 19:27 33.675348 -118.439281 315 33994ft 432kts
15-Oct-19 19:28 33.760248 -118.542083 315 33996ft 434kts
15-Oct-19 19:29 33.845120 -118.645157 315 33992ft 435kts
15-Oct-19 19:30 33.928425 -118.746694 314 34000ft 437kts
15-Oct-19 19:31 34.013806 -118.850983 314 34005ft 438kts
15-Oct-19 19:32 34.099938 -118.956535 314 34026ft 442kts
15-Oct-19 19:33 34.175974 -119.073530 302 34052ft 443kts
15-Oct-19 19:34 34.241022 -119.200131 301 34054ft 444kts
15-Oct-19 19:35 34.306263 -119.327075 301 34053ft 445kts
15-Oct-19 19:36 34.371676 -119.454813 301 34052ft 446kts
15-Oct-19 19:37 34.445306 -119.575000 313 34053ft 447kts
15-Oct-19 19:38 34.532232 -119.681322 313 34055ft 448kts
15-Oct-19 19:39 34.619749 -119.789284 313 34055ft 449kts
15-Oct-19 19:40 34.706994 -119.897216 313 34055ft 448kts
15-Oct-19 19:41 34.794246 -120.005501 312 34071ft 449kts
15-Oct-19 19:42 34.881637 -120.114317 312 34093ft 451kts
15-Oct-19 19:43 34.969271 -120.223782 312 34090ft 449kts
15-Oct-19 19:44 35.056506 -120.333098 312 34089ft 450kts
15-Oct-19 19:45 35.143662 -120.435863 315 34089ft 452kts
15-Oct-19 19:46 35.236400 -120.539347 315 34088ft 452kts
15-Oct-19 19:47 35.328845 -120.643292 315 34087ft 452kts
15-Oct-19 19:48 35.420587 -120.746816 314 34089ft 453kts
15-Oct-19 19:49 35.515718 -120.848467 320 34077ft 456kts
15-Oct-19 19:50 35.617079 -120.942097 319 34073ft 457kts
15-Oct-19 19:51 35.718400 -121.036385 319 34076ft 458kts
15-Oct-19 19:52 35.820021 -121.131240 319 34080ft 459kts
15-Oct-19 19:53 35.921533 -121.226310 319 34099ft 460kts
15-Oct-19 19:54 36.023502 -121.322125 319 34117ft 462kts
15-Oct-19 19:55 36.125545 -121.409364 324 34108ft 433kts
15-Oct-19 19:56 36.227689 -121.488974 324 34118ft 439kts
15-Oct-19 19:57 36.331931 -121.570537 324 31834ft 447kts
15-Oct-19 19:58 36.435472 -121.651857 324 28455ft 440kts
15-Oct-19 19:59 36.536443 -121.731564 324 25541ft 422kts
15-Oct-19 20:00 36.633088 -121.808082 325 22521ft 410kts
15-Oct-19 20:01 36.728313 -121.881815 332 19606ft 397kts
15-Oct-19 20:02 36.828989 -121.918758 345 18758ft 378kts
15-Oct-19 20:03 36.932088 -121.947410 345 15564ft 382kts
15-Oct-19 20:04 37.028154 -121.982742 341 13655ft 350kts
15-Oct-19 20:05 37.119753 -122.018479 341 11104ft 342kts
15-Oct-19 20:06 37.203958 -122.051395 341 10137ft 294kts
15-Oct-19 20:07 37.281085 -122.081785 340 8344ft 289kts
15-Oct-19 20:08 37.356681 -122.111358 341 6807ft 274kts
15-Oct-19 20:09 37.427612 -122.138747 341 5559ft 252kts
15-Oct-19 20:10 37.492245 -122.160243 344 4568ft 227kts
15-Oct-19 20:11 37.543106 -122.196956 303 3194ft 198kts
15-Oct-19 20:12 37.567902 -122.254463 297 1893ft 169kts
15-Oct-19 20:13 37.588414 -122.303046 296 1037ft 143kts
15-Oct-19 20:14 37.607280 -122.347927 297 180ft 140kts
15-Oct-19 20:15 37.618684 -122.375120 288 21ft 34kts
15-Oct-19 20:16 37.618431 -122.379503 206 33ft 9kts
15-Oct-19 20:17 37.615381 -122.380503 200 33ft 11kts
15-Oct-19 20:18 37.612915 -122.382095 208 34ft 14kts
15-Oct-19 20:19 37.610506 -122.384341 286 33ft 6kts
15-Oct-19 20:20 37.611545 -122.386878 299 33ft 13kts
15-Oct-19 20:21 37.612252 -122.389028 298 32ft 0kts
15-Oct-19 20:22 37.612252 -122.389027 298 32ft 0kts

Navigation Log

Ident Type
Flight plan parsing failed, navigation log unavailable